createdAt,value
2023-04-05T00:02:38.124Z,26.88
2023-04-05T00:05:15.521Z,28.30
2023-04-05T00:07:55.258Z,27.30
2023-04-05T00:10:32.776Z,24.30
2023-04-05T00:13:07.883Z,27.98
2023-04-05T00:15:47.544Z,25.10
2023-04-05T00:18:26.641Z,23.83
2023-04-05T00:21:03.205Z,23.67
2023-04-05T00:23:43.770Z,24.75
2023-04-05T00:26:19.248Z,24.67
2023-04-05T00:28:59.888Z,22.40
2023-04-05T00:31:35.393Z,25.10
2023-04-05T00:34:17.224Z,27.00
2023-04-05T00:36:54.236Z,23.05
2023-04-05T00:39:32.852Z,23.00
2023-04-05T00:42:09.768Z,22.45
2023-04-05T00:44:47.692Z,23.93
2023-04-05T00:47:25.417Z,18.08
2023-04-05T00:50:04.367Z,20.73
2023-04-05T00:52:41.027Z,26.20
2023-04-05T00:55:19.524Z,22.88
2023-04-05T00:57:57.106Z,26.40
2023-04-05T01:00:33.181Z,22.50
2023-04-05T01:05:51.611Z,22.15
2023-04-05T01:08:30.148Z,25.27
2023-04-05T01:11:08.105Z,27.90
2023-04-05T01:13:44.420Z,27.45
2023-04-05T01:16:21.291Z,23.58
2023-04-05T01:18:57.121Z,26.52
2023-04-05T01:22:26.982Z,23.55
2023-04-05T01:25:35.480Z,27.40
2023-04-05T01:28:22.682Z,25.10
2023-04-05T01:31:03.766Z,23.40
2023-04-05T01:33:43.241Z,27.75
2023-04-05T01:36:25.095Z,27.25
2023-04-05T01:39:00.770Z,26.08
2023-04-05T01:41:36.263Z,27.70
2023-04-05T01:44:18.074Z,25.38
2023-04-05T01:47:01.030Z,28.20
2023-04-05T01:49:39.854Z,33.35
2023-04-05T01:52:20.391Z,24.50
2023-04-05T01:54:57.936Z,34.80
2023-04-05T01:57:34.855Z,29.83
2023-04-05T02:00:13.675Z,29.00
2023-04-05T02:02:54.722Z,29.65
2023-04-05T02:05:31.902Z,29.20
2023-04-05T02:08:08.316Z,24.63
2023-04-05T02:10:44.683Z,28.17
2023-04-05T02:13:19.142Z,29.75
2023-04-05T02:15:54.510Z,23.88
2023-04-05T02:18:33.959Z,26.17
2023-04-05T02:21:12.733Z,23.38
2023-04-05T02:23:49.534Z,24.77
2023-04-05T02:26:26.814Z,25.13
2023-04-05T02:29:04.431Z,22.05
2023-04-05T02:31:40.316Z,20.48
2023-04-05T02:34:18.789Z,21.75
2023-04-05T02:36:53.946Z,28.45
2023-04-05T02:39:30.835Z,27.40
2023-04-05T02:42:08.121Z,24.67
2023-04-05T02:44:43.883Z,25.53
2023-04-05T02:47:24.024Z,26.83
2023-04-05T02:50:13.064Z,27.00
2023-04-05T02:52:53.305Z,22.90
2023-04-05T02:55:38.025Z,27.85
2023-04-05T02:58:18.064Z,25.25
2023-04-05T03:01:00.321Z,25.20
2023-04-05T03:03:37.836Z,23.88
2023-04-05T03:06:18.595Z,20.55
2023-04-05T03:08:56.318Z,22.85
2023-04-05T03:11:34.180Z,18.25
2023-04-05T03:16:50.916Z,19.77
2023-04-05T03:19:52.769Z,20.05
2023-04-05T03:22:37.137Z,20.98
2023-04-05T03:25:16.817Z,22.80
2023-04-05T03:27:58.502Z,26.40
2023-04-05T03:30:40.489Z,24.25
2023-04-05T03:33:28.138Z,21.85
2023-04-05T03:36:07.189Z,23.40
2023-04-05T03:38:48.737Z,24.90
2023-04-05T03:41:29.126Z,27.10
2023-04-05T03:44:05.427Z,29.58
2023-04-05T03:46:42.810Z,23.87
2023-04-05T03:49:20.147Z,27.80
2023-04-05T03:51:55.076Z,22.95
2023-04-05T03:54:33.915Z,18.40
2023-04-05T03:57:11.553Z,20.50
2023-04-05T03:59:52.223Z,22.90
2023-04-05T04:02:32.728Z,25.50
2023-04-05T04:05:12.759Z,24.42
2023-04-05T04:10:27.431Z,26.00
2023-04-05T04:13:05.446Z,23.17
2023-04-05T04:15:44.128Z,20.75
2023-04-05T04:18:34.527Z,23.90
2023-04-05T04:21:28.406Z,25.70
2023-04-05T04:24:32.975Z,25.25
2023-04-05T04:27:12.557Z,21.95
2023-04-05T04:30:02.305Z,25.90
2023-04-05T04:32:36.403Z,24.67
2023-04-05T04:35:25.444Z,22.40
2023-04-05T04:38:20.854Z,22.35
2023-04-05T04:41:38.565Z,20.97
2023-04-05T04:44:42.952Z,21.13
2023-04-05T04:47:42.497Z,21.70
2023-04-05T04:50:29.085Z,26.85
2023-04-05T04:53:16.763Z,23.65
2023-04-05T04:55:55.453Z,23.20
2023-04-05T04:58:32.661Z,23.65
2023-04-05T05:01:17.876Z,23.35
2023-04-05T05:03:55.341Z,24.55
2023-04-05T05:06:35.939Z,27.33
2023-04-05T05:09:15.747Z,25.15
2023-04-05T05:12:01.676Z,24.85
2023-04-05T05:14:36.899Z,21.70
2023-04-05T05:17:15.506Z,35.47
2023-04-05T05:19:53.012Z,27.20
2023-04-05T05:22:28.949Z,30.25
2023-04-05T05:25:08.262Z,34.35
2023-04-05T05:27:48.122Z,33.38
2023-04-05T05:30:26.704Z,35.85
2023-04-05T05:33:05.229Z,29.45
2023-04-05T05:35:43.937Z,33.17
2023-04-05T05:38:19.825Z,35.70
2023-04-05T05:41:02.215Z,32.40
2023-04-05T05:43:37.917Z,27.55
2023-04-05T05:46:20.115Z,27.13
2023-04-05T05:49:00.761Z,28.73
2023-04-05T05:51:37.410Z,24.30
2023-04-05T05:54:13.116Z,27.17
2023-04-05T05:56:50.257Z,25.58
2023-04-05T05:59:26.930Z,23.70
2023-04-05T06:02:02.890Z,26.50
2023-04-05T06:04:45.826Z,21.27
2023-04-05T06:07:26.022Z,42.58
2023-04-05T06:10:02.767Z,27.10
2023-04-05T06:12:39.817Z,28.63
2023-04-05T06:15:16.718Z,28.40
2023-04-05T06:17:53.806Z,31.27
2023-04-05T06:20:31.447Z,28.30
2023-04-05T06:23:06.785Z,33.55
2023-04-05T06:25:44.969Z,32.30
2023-04-05T06:28:22.645Z,25.88
2023-04-05T06:31:01.204Z,23.55
2023-04-05T06:33:40.225Z,20.00
2023-04-05T06:36:28.490Z,20.95
2023-04-05T06:39:10.610Z,25.47
2023-04-05T06:41:46.978Z,18.98
2023-04-05T06:44:22.916Z,24.60
2023-04-05T06:46:59.890Z,19.70
2023-04-05T06:49:35.838Z,18.90
2023-04-05T06:52:13.823Z,23.50
2023-04-05T06:54:50.646Z,23.63
2023-04-05T06:57:28.117Z,23.33
2023-04-05T07:00:12.521Z,24.48
2023-04-05T07:03:00.798Z,18.90
2023-04-05T07:05:35.366Z,19.33
2023-04-05T07:08:15.820Z,20.30
2023-04-05T07:10:53.762Z,23.38
2023-04-05T07:13:35.018Z,20.85
2023-04-05T07:16:14.008Z,21.80
2023-04-05T07:18:50.361Z,25.20
2023-04-05T07:21:31.515Z,20.30
2023-04-05T07:24:13.156Z,20.97
2023-04-05T07:26:48.853Z,19.17
2023-04-05T07:29:24.657Z,20.77
2023-04-05T07:32:01.825Z,21.70
2023-04-05T07:34:39.718Z,21.02
2023-04-05T07:37:19.830Z,23.88
2023-04-05T07:39:58.814Z,21.55
2023-04-05T07:42:36.437Z,22.77
2023-04-05T07:45:14.423Z,21.60
2023-04-05T07:47:52.162Z,22.35
2023-04-05T07:50:30.363Z,23.50
2023-04-05T07:53:08.518Z,22.40
2023-04-05T07:55:46.925Z,21.05
2023-04-05T07:58:24.188Z,22.70
2023-04-05T08:01:04.683Z,22.00
2023-04-05T08:03:40.322Z,20.95
2023-04-05T08:06:18.100Z,18.60
2023-04-05T08:08:54.304Z,18.20
2023-04-05T08:14:12.318Z,17.77
2023-04-05T08:16:48.229Z,14.73
2023-04-05T08:21:59.168Z,12.10
2023-04-05T08:24:34.940Z,16.10
2023-04-05T08:27:13.975Z,12.85
2023-04-05T08:29:49.272Z,8.75
2023-04-05T08:32:25.199Z,11.68
2023-04-05T08:35:02.356Z,11.10
2023-04-05T08:37:44.235Z,12.45
2023-04-05T08:40:20.309Z,10.85
2023-04-05T08:43:01.071Z,9.40
2023-04-05T08:45:37.019Z,11.05
2023-04-05T08:48:13.414Z,11.10
2023-04-05T08:53:31.086Z,8.85
2023-04-05T08:56:07.164Z,8.82
2023-04-05T09:01:27.713Z,9.52
2023-04-05T09:04:04.088Z,9.32
2023-04-05T09:06:39.851Z,8.68
2023-04-05T09:09:15.387Z,5.78
2023-04-05T09:11:52.871Z,5.95
2023-04-05T09:14:35.395Z,8.90
2023-04-05T09:17:11.953Z,8.18
2023-04-05T09:19:46.692Z,3.60
2023-04-05T09:22:21.863Z,6.35
2023-04-05T09:24:59.416Z,8.10
2023-04-05T09:27:35.359Z,8.73
2023-04-05T09:30:24.831Z,10.40
2023-04-05T09:33:00.872Z,8.23
2023-04-05T09:35:41.457Z,9.30
2023-04-05T09:38:17.421Z,8.75
2023-04-05T09:40:53.235Z,7.35
2023-04-05T09:43:43.328Z,6.57
2023-04-05T09:46:38.423Z,6.95
2023-04-05T09:49:16.150Z,8.02
2023-04-05T09:51:52.708Z,9.45
2023-04-05T09:54:28.925Z,6.10
2023-04-05T09:57:05.242Z,6.70
2023-04-05T10:02:19.284Z,9.02
2023-04-05T10:04:55.362Z,10.40
2023-04-05T10:10:05.182Z,6.95
2023-04-05T10:12:42.677Z,8.48
2023-04-05T10:15:19.125Z,8.27
2023-04-05T10:18:03.383Z,10.27
2023-04-05T10:20:39.938Z,7.75
2023-04-05T10:23:20.039Z,8.50
2023-04-05T10:26:01.075Z,5.85
2023-04-05T10:28:39.817Z,9.50
2023-04-05T10:31:21.026Z,7.85
2023-04-05T10:34:08.252Z,6.40
2023-04-05T10:36:48.318Z,6.47
2023-04-05T10:39:26.408Z,7.20
2023-04-05T10:42:05.848Z,7.97
2023-04-05T10:44:42.396Z,6.50
2023-04-05T10:47:19.579Z,5.70
2023-04-05T10:50:00.274Z,9.15
2023-04-05T10:52:36.215Z,8.38
2023-04-05T10:57:46.881Z,8.32
2023-04-05T11:00:24.092Z,7.50
2023-04-05T11:03:00.893Z,8.73
2023-04-05T11:05:42.016Z,9.10
2023-04-05T11:08:17.564Z,5.93
2023-04-05T11:10:53.414Z,6.57
2023-04-05T11:13:36.683Z,6.50
2023-04-05T11:16:15.948Z,8.98
2023-04-05T11:18:54.272Z,7.40
2023-04-05T11:21:32.852Z,8.35
2023-04-05T11:24:12.722Z,5.88
2023-04-05T11:26:58.005Z,8.25
2023-04-05T11:29:54.965Z,5.43
2023-04-05T11:32:44.070Z,6.70
2023-04-05T11:35:23.693Z,6.67
2023-04-05T11:37:57.642Z,5.28
2023-04-05T11:40:36.690Z,4.07
2023-04-05T11:43:13.076Z,6.90
2023-04-05T11:45:50.033Z,8.20
2023-04-05T11:48:26.065Z,7.75
2023-04-05T11:53:39.534Z,5.28
2023-04-05T11:56:17.842Z,5.57
2023-04-05T11:58:53.348Z,6.53
2023-04-05T12:01:30.974Z,6.15
2023-04-05T12:04:08.157Z,10.43
2023-04-05T12:06:46.613Z,7.07
2023-04-05T12:09:22.139Z,9.77
2023-04-05T12:12:01.622Z,9.85
2023-04-05T12:14:37.095Z,5.97
2023-04-05T12:17:12.710Z,8.68
2023-04-05T12:19:49.619Z,6.75
2023-04-05T12:22:24.819Z,8.65
2023-04-05T12:24:58.642Z,7.07
2023-04-05T12:27:37.890Z,7.80
2023-04-05T12:30:19.927Z,8.20
2023-04-05T12:32:56.535Z,9.75
2023-04-05T12:35:35.720Z,6.85
2023-04-05T12:38:11.113Z,8.68
2023-04-05T12:40:47.058Z,7.78
2023-04-05T12:43:26.409Z,5.05
2023-04-05T12:45:57.195Z,8.27
2023-04-05T12:48:33.139Z,6.87
2023-04-05T12:51:18.201Z,5.05
2023-04-05T12:53:52.696Z,5.43
2023-04-05T12:56:29.595Z,7.65
2023-04-05T12:59:08.741Z,8.60
2023-04-05T13:01:45.401Z,6.07
2023-04-05T13:04:23.569Z,6.43
2023-04-05T13:06:58.966Z,4.85
2023-04-05T13:09:37.292Z,4.73
2023-04-05T13:12:13.336Z,6.43
2023-04-05T13:17:26.850Z,4.80
2023-04-05T13:20:05.003Z,5.15
2023-04-05T13:22:41.102Z,8.70
2023-04-05T13:27:53.398Z,4.90
2023-04-05T13:30:33.229Z,5.70
2023-04-05T13:33:09.273Z,17.07
2023-04-05T13:38:25.244Z,13.20
2023-04-05T13:41:00.188Z,12.65
2023-04-05T13:43:35.938Z,9.90
2023-04-05T13:46:18.052Z,9.20
2023-04-05T13:48:54.606Z,31.27
2023-04-05T13:51:34.983Z,27.70
2023-04-05T13:54:12.372Z,42.63
2023-04-05T13:56:49.145Z,20.00
2023-04-05T13:59:27.997Z,13.07
2023-04-05T14:02:26.214Z,11.13
2023-04-05T14:05:03.143Z,6.80
2023-04-05T14:07:38.849Z,15.93
2023-04-05T14:10:17.407Z,8.75
2023-04-05T14:12:53.064Z,7.35
2023-04-05T14:15:30.734Z,7.63
2023-04-05T14:18:09.869Z,9.48
2023-04-05T14:20:46.295Z,7.65
2023-04-05T14:23:22.015Z,6.18
2023-04-05T14:25:58.277Z,7.05
2023-04-05T14:28:34.356Z,9.00
2023-04-05T14:33:49.904Z,6.18
2023-04-05T14:36:27.091Z,7.13
2023-04-05T14:39:03.551Z,8.00
2023-04-05T14:41:39.769Z,4.60
2023-04-05T14:44:15.165Z,5.00
2023-04-05T14:46:52.419Z,6.43
2023-04-05T14:49:31.952Z,7.72
2023-04-05T14:52:09.677Z,7.05
2023-04-05T14:54:47.326Z,8.23
2023-04-05T14:57:23.795Z,6.80
2023-04-05T15:00:01.646Z,5.45
2023-04-05T15:02:39.328Z,9.15
2023-04-05T15:05:21.043Z,4.68
2023-04-05T15:07:55.479Z,5.10
2023-04-05T15:10:33.665Z,5.00
2023-04-05T15:13:10.798Z,4.57
2023-04-05T15:15:47.119Z,6.15
2023-04-05T15:18:23.901Z,5.43
2023-04-05T15:21:03.209Z,6.40
2023-04-05T15:23:39.974Z,6.30
2023-04-05T15:26:19.202Z,5.20
2023-04-05T15:28:57.918Z,6.03
2023-04-05T15:31:34.697Z,3.35
2023-04-05T15:34:10.506Z,6.95
2023-04-05T15:36:49.451Z,3.22
2023-04-05T15:39:24.726Z,3.97
2023-04-05T15:42:04.506Z,7.00
2023-04-05T15:44:41.366Z,6.20
2023-04-05T15:47:16.384Z,4.10
2023-04-05T15:49:53.836Z,4.13
2023-04-05T15:52:32.336Z,6.03
2023-04-05T15:55:10.081Z,8.43
2023-04-05T15:57:49.848Z,5.55
2023-04-05T16:00:29.091Z,6.30
2023-04-05T16:03:06.464Z,3.45
2023-04-05T16:05:45.205Z,5.75
2023-04-05T16:08:24.161Z,4.88
2023-04-05T16:11:02.735Z,5.50
2023-04-05T16:13:39.464Z,7.07
2023-04-05T16:16:29.831Z,19.05
2023-04-05T16:19:11.974Z,6.85
2023-04-05T16:21:50.711Z,5.07
2023-04-05T16:24:30.623Z,4.28
2023-04-05T16:27:05.561Z,4.37
2023-04-05T16:29:42.366Z,4.90
2023-04-05T16:32:18.764Z,5.65
2023-04-05T16:34:55.652Z,4.63
2023-04-05T16:37:32.249Z,5.35
2023-04-05T16:40:12.291Z,4.75
2023-04-05T16:42:47.949Z,11.43
2023-04-05T16:45:22.938Z,6.80
2023-04-05T16:48:00.498Z,7.05
2023-04-05T16:50:40.724Z,5.60
2023-04-05T16:53:16.626Z,10.23
2023-04-05T16:55:55.064Z,7.18
2023-04-05T16:58:30.823Z,8.48
2023-04-05T17:01:10.099Z,7.05
2023-04-05T17:03:47.702Z,6.90
2023-04-05T17:06:23.349Z,7.07
2023-04-05T17:09:00.896Z,7.07
2023-04-05T17:11:39.143Z,6.03
2023-04-05T17:14:15.238Z,6.15
2023-04-05T17:16:51.309Z,5.78
2023-04-05T17:22:03.521Z,5.95
2023-04-05T17:24:43.962Z,6.20
2023-04-05T17:27:25.576Z,7.97
2023-04-05T17:30:01.720Z,5.13
2023-04-05T17:32:39.028Z,7.55
2023-04-05T17:35:16.452Z,5.63
2023-04-05T17:37:55.128Z,8.55
2023-04-05T17:40:31.440Z,8.60
2023-04-05T17:43:14.512Z,5.90
2023-04-05T17:45:50.340Z,8.43
2023-04-05T17:48:27.498Z,6.17
2023-04-05T17:51:07.677Z,3.95
2023-04-05T17:53:48.286Z,5.40
2023-04-05T17:56:26.734Z,4.80
2023-04-05T17:59:06.802Z,6.75
2023-04-05T18:01:43.804Z,4.55
2023-04-05T18:04:19.809Z,8.02
2023-04-05T18:09:32.835Z,8.05
2023-04-05T18:12:08.768Z,6.72
2023-04-05T18:14:47.533Z,6.60
2023-04-05T18:17:23.674Z,6.87
2023-04-05T18:22:36.398Z,11.00
2023-04-05T18:25:14.855Z,14.82
2023-04-05T18:27:52.389Z,17.33
2023-04-05T18:30:31.057Z,22.70
2023-04-05T18:33:07.748Z,16.70
2023-04-05T18:35:44.403Z,13.75
2023-04-05T18:38:22.180Z,14.95
2023-04-05T18:41:05.167Z,15.98
2023-04-05T18:43:43.349Z,19.45
2023-04-05T18:46:19.203Z,18.88
2023-04-05T18:48:58.536Z,17.00
2023-04-05T18:51:35.288Z,24.40
2023-04-05T18:54:11.472Z,38.65
2023-04-05T18:56:48.243Z,45.25
2023-04-05T18:59:24.596Z,32.10
2023-04-05T19:02:06.850Z,30.58
2023-04-05T19:04:46.017Z,30.08
2023-04-05T19:07:23.382Z,35.13
2023-04-05T19:09:59.055Z,34.97
2023-04-05T19:12:35.744Z,35.13
2023-04-05T19:15:14.293Z,34.45
2023-04-05T19:18:13.377Z,32.25
2023-04-05T19:20:57.128Z,35.92
2023-04-05T19:23:33.749Z,38.60
2023-04-05T19:26:16.175Z,37.85
2023-04-05T19:28:51.656Z,35.57
2023-04-05T19:31:28.058Z,44.35
2023-04-05T19:34:04.216Z,42.42
2023-04-05T19:39:19.074Z,31.95
2023-04-05T19:41:54.961Z,27.13
2023-04-05T19:44:52.146Z,26.90
2023-04-05T19:47:28.568Z,25.90
2023-04-05T19:50:07.320Z,28.52
2023-04-05T19:52:42.310Z,24.35
2023-04-05T19:55:36.665Z,28.50
2023-04-05T19:58:13.362Z,33.22
2023-04-05T20:00:53.019Z,30.42
2023-04-05T20:03:33.530Z,30.58
2023-04-05T20:06:12.270Z,29.20
2023-04-05T20:08:48.092Z,29.25
2023-04-05T20:11:28.089Z,32.75
2023-04-05T20:14:06.511Z,30.88
2023-04-05T20:16:45.071Z,28.17
2023-04-05T20:19:20.653Z,31.20
2023-04-05T20:21:57.388Z,28.07
2023-04-05T20:24:34.036Z,30.67
2023-04-05T20:27:13.080Z,32.27
2023-04-05T20:29:50.754Z,34.90
2023-04-05T20:32:26.787Z,38.37
2023-04-05T20:37:39.128Z,38.83
2023-04-05T20:40:16.706Z,29.42
2023-04-05T20:42:57.158Z,31.70
2023-04-05T20:45:38.815Z,42.90
2023-04-05T20:48:15.926Z,47.63
2023-04-05T20:50:52.595Z,44.80
2023-04-05T20:53:28.023Z,52.53
2023-04-05T20:56:04.076Z,54.10
2023-04-05T20:58:43.114Z,46.07
2023-04-05T21:01:20.207Z,51.63
2023-04-05T21:03:58.015Z,47.55
2023-04-05T21:06:34.748Z,49.25
2023-04-05T21:09:10.479Z,38.85
2023-04-05T21:11:46.389Z,51.20
2023-04-05T21:14:20.735Z,40.47
2023-04-05T21:17:01.655Z,47.00
2023-04-05T21:19:37.117Z,44.90
2023-04-05T21:22:14.483Z,41.87
2023-04-05T21:24:49.395Z,51.57
2023-04-05T21:27:24.630Z,44.33
2023-04-05T21:30:00.301Z,48.45
2023-04-05T21:32:39.548Z,44.92
2023-04-05T21:35:14.530Z,55.35
2023-04-05T21:37:48.213Z,55.03
2023-04-05T21:40:24.338Z,48.30
2023-04-05T21:42:59.808Z,55.17
2023-04-05T21:45:40.927Z,51.33
2023-04-05T21:48:18.516Z,47.53
2023-04-05T21:50:53.458Z,54.75
2023-04-05T21:53:29.821Z,64.20
2023-04-05T21:56:05.679Z,72.90
2023-04-05T21:58:49.211Z,64.35
2023-04-05T22:01:25.523Z,84.50
2023-04-05T22:04:03.835Z,100.75
2023-04-05T22:06:39.818Z,91.28
2023-04-05T22:11:53.098Z,106.32
2023-04-05T22:14:29.084Z,117.40
2023-04-05T22:17:06.769Z,102.47
2023-04-05T22:19:46.983Z,112.45
2023-04-05T22:22:26.812Z,132.43
2023-04-05T22:25:02.250Z,123.88
2023-04-05T22:27:38.027Z,107.38
2023-04-05T22:30:14.418Z,99.50
2023-04-05T22:32:50.010Z,89.60
2023-04-05T22:35:27.331Z,76.87
2023-04-05T22:38:03.257Z,88.20
2023-04-05T22:40:41.745Z,106.82
2023-04-05T22:43:17.693Z,94.10
2023-04-05T22:45:53.034Z,101.13
2023-04-05T22:48:28.537Z,108.45
2023-04-05T22:51:08.530Z,88.55
2023-04-05T22:53:44.006Z,104.90
2023-04-05T22:56:21.674Z,114.40
2023-04-05T22:58:58.220Z,118.32
2023-04-05T23:01:35.077Z,92.80
2023-04-05T23:04:11.836Z,109.07
2023-04-05T23:06:50.822Z,108.43
2023-04-05T23:09:26.445Z,99.00
2023-04-05T23:12:02.283Z,102.50
2023-04-05T23:14:38.188Z,90.55
2023-04-05T23:17:14.018Z,81.20
2023-04-05T23:19:49.523Z,82.68
2023-04-05T23:22:28.225Z,64.65
2023-04-05T23:25:06.255Z,91.20
2023-04-05T23:27:41.951Z,79.70
2023-04-05T23:30:17.602Z,75.07
2023-04-05T23:32:53.392Z,70.80
2023-04-05T23:35:29.730Z,66.53
2023-04-05T23:38:09.335Z,54.03
2023-04-05T23:40:47.749Z,72.63
2023-04-05T23:43:28.559Z,83.63
2023-04-05T23:46:03.915Z,61.92
2023-04-05T23:48:39.618Z,73.88
2023-04-05T23:51:16.583Z,73.13
2023-04-05T23:53:57.780Z,64.85
2023-04-05T23:56:36.799Z,61.90
2023-04-05T23:59:14.029Z,63.00
